Enter the Airport ICAO Code

Search by Airport or City

Current Weather

SGAS | Silvio Pettirossi International Airport

Asunción, Paraguay

Last Update 19 Minutes Ago

Sky with Few Clouds

Temperature of 27 ºC

Light Winds from East

Temperature

27 ºC

Dew Point Temperature

12 ºC

Relative Humidity

39.55 %

Wind Direction

East (090º, Without Significant Variations)

Wind Velocity

6 km/h (03 kt)

Gusts

None

Visibility

Greater than 10 Kilometers

Sea Level Pressure

1013 hPa (Hectopascals)

Layers of Clouds

5% to 30% of Sky Covered from 1219 mts (4000 ft) Above Ground Level.

METAR SGAS 202200Z 09003KT 9999 FEW040 27/12 Q1013

Weather Forecast

SGAS | Silvio Pettirossi International Airport

Asunción, Paraguay

Forecast valid for the next 26 Hours

In 2 hours it is expected the begining of:

Clear Sky

Light to Moderate Winds from SouthEast

In 14 to 18 hours it is expected the begining of:

Sky with Few Clouds

Light to Moderate Winds from NorthEast

Maximum Temperature

31 ºC in 20 Hours

Minimum Temperature

16 ºC in 12 Hours

TAF SGAS 202110Z 2100/2200 15006KT CAVOK TX31/2118Z TN16/2110Z BECMG 2112/2116 04007KT 9999 FEW040